createdAt,value
2023-05-25T00:01:03.120Z,66.13
2023-05-25T00:03:32.411Z,68.19
2023-05-25T00:06:01.782Z,70.47
2023-05-25T00:08:29.376Z,69.40
2023-05-25T00:10:56.240Z,68.12
2023-05-25T00:13:22.928Z,67.62
2023-05-25T00:15:49.865Z,66.63
2023-05-25T00:18:16.584Z,67.79
2023-05-25T00:20:44.655Z,68.54
2023-05-25T00:23:11.417Z,66.83
2023-05-25T00:25:38.119Z,67.00
2023-05-25T00:28:04.952Z,66.92
2023-05-25T00:30:31.644Z,67.18
2023-05-25T00:32:59.892Z,66.78
2023-05-25T00:35:26.621Z,67.72
2023-05-25T00:37:53.299Z,68.38
2023-05-25T00:40:19.992Z,69.24
2023-05-25T00:42:47.392Z,68.00
2023-05-25T00:45:14.093Z,69.15
2023-05-25T00:47:41.638Z,69.41
2023-05-25T00:50:10.272Z,70.66
2023-05-25T00:52:37.130Z,70.20
2023-05-25T00:55:06.781Z,70.08
2023-05-25T00:57:38.030Z,70.96
2023-05-25T01:00:11.955Z,70.90
2023-05-25T01:02:41.339Z,70.83
2023-05-25T01:05:10.805Z,71.84
2023-05-25T01:07:39.310Z,72.05
2023-05-25T01:10:07.043Z,72.28
2023-05-25T01:12:40.481Z,72.20
2023-05-25T01:15:07.812Z,71.80
2023-05-25T01:17:39.584Z,70.14
2023-05-25T01:20:11.628Z,70.28
2023-05-25T01:22:54.490Z,70.04
2023-05-25T01:25:51.605Z,72.31
2023-05-25T01:28:23.393Z,71.96
2023-05-25T01:30:50.934Z,70.50
2023-05-25T01:33:21.653Z,70.02
2023-05-25T01:35:49.708Z,72.58
2023-05-25T01:38:17.797Z,72.41
2023-05-25T01:40:44.644Z,71.42
2023-05-25T01:43:11.280Z,71.43
2023-05-25T01:45:38.816Z,70.00
2023-05-25T01:48:42.550Z,70.88
2023-05-25T01:51:22.449Z,71.71
2023-05-25T01:53:54.473Z,72.53
2023-05-25T01:56:23.280Z,72.95
2023-05-25T01:58:51.400Z,71.81
2023-05-25T02:01:20.172Z,72.82
2023-05-25T02:03:51.701Z,72.05
2023-05-25T02:06:18.591Z,72.94
2023-05-25T02:08:45.875Z,71.66
2023-05-25T02:11:16.293Z,72.34
2023-05-25T02:13:43.153Z,72.06
2023-05-25T02:16:09.985Z,71.93
2023-05-25T02:18:37.224Z,72.20
2023-05-25T02:21:03.993Z,72.15
2023-05-25T02:23:30.695Z,72.47
2023-05-25T02:25:57.439Z,72.84
2023-05-25T02:28:24.136Z,73.03
2023-05-25T02:30:51.061Z,73.22
2023-05-25T02:33:18.862Z,74.02
2023-05-25T02:35:45.800Z,73.18
2023-05-25T02:38:12.943Z,73.17
2023-05-25T02:40:39.676Z,74.34
2023-05-25T02:43:06.377Z,73.21
2023-05-25T02:45:33.168Z,73.11
2023-05-25T02:47:59.863Z,73.86
2023-05-25T02:50:26.621Z,74.20
2023-05-25T02:52:54.157Z,74.54
2023-05-25T02:55:20.884Z,73.42
2023-05-25T02:57:47.598Z,73.60
2023-05-25T03:00:14.983Z,74.10
2023-05-25T03:02:41.799Z,73.66
2023-05-25T03:05:08.837Z,73.60
2023-05-25T03:07:35.757Z,73.23
2023-05-25T03:10:02.445Z,73.61
2023-05-25T03:12:29.099Z,73.27
2023-05-25T03:14:55.851Z,74.18
2023-05-25T03:17:22.527Z,74.37
2023-05-25T03:19:49.205Z,74.75
2023-05-25T03:22:16.001Z,73.87
2023-05-25T03:24:42.640Z,73.49
2023-05-25T03:27:09.351Z,73.85
2023-05-25T03:29:36.174Z,74.20
2023-05-25T03:32:03.124Z,73.88
2023-05-25T03:34:30.175Z,75.70
2023-05-25T03:36:56.954Z,75.46
2023-05-25T03:39:23.683Z,75.61
2023-05-25T03:41:51.249Z,75.83
2023-05-25T03:44:18.060Z,74.99
2023-05-25T03:46:44.851Z,76.07
2023-05-25T03:49:14.054Z,75.19
2023-05-25T03:51:41.708Z,75.75
2023-05-25T03:54:08.777Z,76.19
2023-05-25T03:56:35.587Z,76.22
2023-05-25T03:59:02.212Z,76.37
2023-05-25T04:01:30.252Z,77.28
2023-05-25T04:03:57.494Z,77.70
2023-05-25T04:06:25.682Z,77.27
2023-05-25T04:08:53.051Z,76.83
2023-05-25T04:11:20.123Z,75.93
2023-05-25T04:13:46.846Z,75.96
2023-05-25T04:16:13.741Z,74.77
2023-05-25T04:18:40.576Z,75.13
2023-05-25T04:21:07.220Z,74.37
2023-05-25T04:23:34.196Z,75.11
2023-05-25T04:26:01.186Z,74.09
2023-05-25T04:28:28.426Z,74.39
2023-05-25T04:30:58.162Z,74.87
2023-05-25T04:33:24.913Z,74.72
2023-05-25T04:35:51.715Z,75.68
2023-05-25T04:38:18.451Z,75.06
2023-05-25T04:40:47.572Z,75.16
2023-05-25T04:43:18.168Z,74.89
2023-05-25T04:45:46.016Z,76.41
2023-05-25T04:48:13.751Z,75.69
2023-05-25T04:50:40.552Z,75.38
2023-05-25T04:53:07.541Z,74.95
2023-05-25T04:55:34.251Z,74.72
2023-05-25T04:58:00.981Z,74.84
2023-05-25T05:00:28.245Z,74.91
2023-05-25T05:03:05.586Z,75.73
2023-05-25T05:05:32.516Z,74.73
2023-05-25T05:07:59.789Z,76.05
2023-05-25T05:10:26.448Z,75.74
2023-05-25T05:12:53.099Z,76.20
2023-05-25T05:15:19.720Z,76.13
2023-05-25T05:17:46.700Z,76.27
2023-05-25T05:20:13.519Z,76.49
2023-05-25T05:22:40.194Z,76.38
2023-05-25T05:25:07.837Z,75.22
2023-05-25T05:27:34.797Z,75.19
2023-05-25T05:30:01.535Z,75.26
2023-05-25T05:32:28.244Z,75.91
2023-05-25T05:34:54.949Z,75.28
2023-05-25T05:37:21.584Z,75.68
2023-05-25T05:39:48.348Z,75.42
2023-05-25T05:42:15.018Z,75.31
2023-05-25T05:44:41.746Z,74.89
2023-05-25T05:47:08.402Z,74.90
2023-05-25T05:49:35.083Z,74.49
2023-05-25T05:52:03.370Z,74.47
2023-05-25T05:54:30.071Z,74.02
2023-05-25T05:56:56.711Z,74.83
2023-05-25T05:59:23.475Z,74.37
2023-05-25T06:01:50.184Z,74.90
2023-05-25T06:04:18.752Z,74.92
2023-05-25T06:06:45.785Z,74.09
2023-05-25T06:09:12.793Z,73.79
2023-05-25T06:11:40.175Z,73.48
2023-05-25T06:14:07.067Z,73.69
2023-05-25T06:16:33.982Z,74.12
2023-05-25T06:19:01.469Z,74.82
2023-05-25T06:21:28.337Z,74.08
2023-05-25T06:23:57.790Z,74.06
2023-05-25T06:26:24.974Z,73.83
2023-05-25T06:28:51.761Z,73.60
2023-05-25T06:31:18.816Z,73.57
2023-05-25T06:33:45.591Z,73.60
2023-05-25T06:36:15.701Z,73.69
2023-05-25T06:38:42.962Z,74.12
2023-05-25T06:41:12.913Z,73.90
2023-05-25T06:43:39.636Z,73.74
2023-05-25T06:46:06.427Z,73.74
2023-05-25T06:48:33.130Z,73.69
2023-05-25T06:50:59.816Z,73.99
2023-05-25T06:53:26.459Z,73.66
2023-05-25T06:55:53.103Z,73.97
2023-05-25T06:58:19.748Z,73.69
2023-05-25T07:00:46.917Z,73.64
2023-05-25T07:03:13.720Z,73.56
2023-05-25T07:05:40.481Z,73.58
2023-05-25T07:08:07.229Z,73.30
2023-05-25T07:10:34.384Z,73.64
2023-05-25T07:13:04.171Z,73.24
2023-05-25T07:15:30.887Z,72.69
2023-05-25T07:17:57.602Z,72.71
2023-05-25T07:20:24.643Z,72.44
2023-05-25T07:22:51.586Z,72.46
2023-05-25T07:25:18.279Z,72.68
2023-05-25T07:27:48.897Z,72.74
2023-05-25T07:30:15.858Z,72.97
2023-05-25T07:32:42.672Z,72.44
2023-05-25T07:35:09.356Z,71.95
2023-05-25T07:37:36.061Z,72.00
2023-05-25T07:40:03.223Z,71.87
2023-05-25T07:42:34.278Z,71.87
2023-05-25T07:45:04.000Z,72.10
2023-05-25T07:47:30.835Z,72.47
2023-05-25T07:49:57.602Z,72.55
2023-05-25T07:52:24.247Z,73.15
2023-05-25T07:54:51.397Z,72.84
2023-05-25T07:57:18.336Z,72.64
2023-05-25T07:59:45.343Z,72.77
2023-05-25T08:02:12.099Z,72.83
2023-05-25T08:04:38.943Z,72.40
2023-05-25T08:07:05.785Z,72.86
2023-05-25T08:09:32.467Z,72.19
2023-05-25T08:12:21.224Z,71.77
2023-05-25T08:14:46.628Z,71.61
2023-05-25T08:17:13.536Z,72.41
2023-05-25T08:19:40.313Z,71.88
2023-05-25T08:22:06.965Z,71.54
2023-05-25T08:24:33.654Z,71.21
2023-05-25T08:27:02.038Z,71.06
2023-05-25T08:29:28.814Z,71.25
2023-05-25T08:31:55.650Z,70.68
2023-05-25T08:34:22.312Z,71.13
2023-05-25T08:36:49.171Z,70.90
2023-05-25T08:39:16.840Z,71.07
2023-05-25T08:41:45.213Z,70.94
2023-05-25T08:44:14.461Z,70.73
2023-05-25T08:46:41.431Z,71.29
2023-05-25T08:49:13.255Z,71.73
2023-05-25T08:51:49.613Z,71.27
2023-05-25T08:54:19.558Z,71.23
2023-05-25T08:56:51.293Z,70.84
2023-05-25T08:59:18.029Z,70.56
2023-05-25T09:01:47.960Z,70.10
2023-05-25T09:04:15.221Z,70.25
2023-05-25T09:06:42.480Z,70.34
2023-05-25T09:09:10.194Z,69.86
2023-05-25T09:11:40.382Z,69.79
2023-05-25T09:14:08.849Z,69.77
2023-05-25T09:16:37.603Z,70.60
2023-05-25T09:19:04.631Z,69.35
2023-05-25T09:21:31.728Z,69.55
2023-05-25T09:24:00.115Z,69.09
2023-05-25T09:26:27.673Z,68.85
2023-05-25T09:28:54.475Z,68.77
2023-05-25T09:31:23.987Z,69.25
2023-05-25T09:33:51.549Z,68.24
2023-05-25T09:36:22.030Z,68.58
2023-05-25T09:38:49.088Z,68.47
2023-05-25T09:41:16.320Z,67.95
2023-05-25T09:43:48.950Z,68.28
2023-05-25T09:46:24.695Z,67.36
2023-05-25T09:48:53.495Z,67.63
2023-05-25T09:51:21.646Z,67.65
2023-05-25T09:53:48.934Z,67.58
2023-05-25T09:56:17.429Z,66.96
2023-05-25T09:58:45.500Z,67.12
2023-05-25T10:01:12.256Z,66.24
2023-05-25T10:03:59.695Z,66.62
2023-05-25T10:06:33.324Z,66.78
2023-05-25T10:09:01.563Z,66.40
2023-05-25T10:11:29.439Z,66.37
2023-05-25T10:13:59.057Z,66.42
2023-05-25T10:16:29.439Z,65.58
2023-05-25T10:19:17.609Z,66.10
2023-05-25T10:21:51.394Z,65.79
2023-05-25T10:24:46.408Z,65.80
2023-05-25T10:27:26.913Z,65.70
2023-05-25T10:29:56.739Z,65.13
2023-05-25T10:32:24.309Z,65.67
2023-05-25T10:34:52.687Z,65.17
2023-05-25T10:37:20.068Z,64.53
2023-05-25T10:39:48.205Z,65.59
2023-05-25T10:42:17.210Z,65.43
2023-05-25T10:44:44.946Z,65.38
2023-05-25T10:47:12.520Z,64.62
2023-05-25T10:49:53.630Z,63.50
2023-05-25T10:52:20.571Z,64.21
2023-05-25T10:54:48.196Z,63.91
2023-05-25T10:57:24.232Z,62.80
2023-05-25T11:00:00.733Z,62.70
2023-05-25T11:02:28.451Z,63.04
2023-05-25T11:05:26.021Z,63.06
2023-05-25T11:07:57.270Z,63.01
2023-05-25T11:10:43.326Z,63.17
2023-05-25T11:13:31.507Z,62.18
2023-05-25T11:16:25.440Z,62.28
2023-05-25T11:19:00.096Z,62.15
2023-05-25T11:21:27.208Z,62.53
2023-05-25T11:23:58.134Z,61.16
2023-05-25T11:26:33.971Z,61.03
2023-05-25T11:29:02.298Z,60.69
2023-05-25T11:31:32.293Z,61.04
2023-05-25T11:34:02.701Z,59.60
2023-05-25T11:36:34.065Z,60.39
2023-05-25T11:39:06.688Z,61.03
2023-05-25T11:41:40.386Z,60.03
2023-05-25T11:44:07.874Z,60.77
2023-05-25T11:46:35.063Z,59.86
2023-05-25T11:49:01.920Z,60.16
2023-05-25T11:51:30.733Z,59.02
2023-05-25T11:53:57.497Z,58.80
2023-05-25T11:56:35.229Z,57.08
2023-05-25T11:59:02.928Z,56.96
2023-05-25T12:01:32.052Z,57.82
2023-05-25T12:03:59.155Z,57.11
2023-05-25T12:06:33.558Z,57.79
2023-05-25T12:09:05.595Z,55.48
2023-05-25T12:11:40.596Z,57.80
2023-05-25T12:14:07.805Z,57.50
2023-05-25T12:16:37.166Z,57.36
2023-05-25T12:19:04.536Z,56.09
2023-05-25T12:21:32.683Z,56.46
2023-05-25T12:24:00.730Z,56.20
2023-05-25T12:26:28.462Z,53.85
2023-05-25T12:29:06.512Z,54.78
2023-05-25T12:31:35.456Z,55.12
2023-05-25T12:34:17.654Z,54.82
2023-05-25T12:36:54.093Z,55.19
2023-05-25T12:39:29.686Z,54.74
2023-05-25T12:41:57.807Z,53.81
2023-05-25T12:44:25.649Z,54.22
2023-05-25T12:46:55.213Z,54.02
2023-05-25T12:49:41.375Z,51.17
2023-05-25T12:52:09.622Z,51.89
2023-05-25T12:54:43.999Z,52.30
2023-05-25T12:57:13.880Z,51.69
2023-05-25T12:59:42.857Z,52.05
2023-05-25T13:02:10.529Z,52.63
2023-05-25T13:04:38.950Z,51.25
2023-05-25T13:07:08.521Z,53.68
2023-05-25T13:09:35.855Z,53.78
2023-05-25T13:12:03.081Z,53.21
2023-05-25T13:14:30.339Z,52.63
2023-05-25T13:16:57.583Z,52.05
2023-05-25T13:19:25.596Z,51.52
2023-05-25T13:21:52.815Z,51.18
2023-05-25T13:24:19.825Z,50.14
2023-05-25T13:26:49.155Z,51.13
2023-05-25T13:29:17.614Z,50.32
2023-05-25T13:31:44.418Z,50.82
2023-05-25T13:34:11.803Z,50.85
2023-05-25T13:36:38.626Z,50.18
2023-05-25T13:39:05.537Z,50.76
2023-05-25T13:41:32.295Z,50.66
2023-05-25T13:43:59.029Z,48.40
2023-05-25T13:46:34.180Z,49.64
2023-05-25T13:49:02.127Z,49.91
2023-05-25T13:51:28.799Z,47.97
2023-05-25T13:53:55.651Z,48.12
2023-05-25T13:56:22.533Z,48.81
2023-05-25T13:58:49.384Z,47.88
2023-05-25T14:01:16.510Z,47.05
2023-05-25T14:03:43.507Z,46.69
2023-05-25T14:06:10.297Z,46.85
2023-05-25T14:08:37.007Z,45.77
2023-05-25T14:11:03.766Z,47.61
2023-05-25T14:13:30.548Z,46.44
2023-05-25T14:15:57.303Z,45.55
2023-05-25T14:18:24.391Z,46.59
2023-05-25T14:20:51.112Z,46.81
2023-05-25T14:23:19.367Z,46.80
2023-05-25T14:25:47.160Z,45.52
2023-05-25T14:28:14.199Z,46.03
2023-05-25T14:30:40.867Z,45.59
2023-05-25T14:33:07.726Z,44.83
2023-05-25T14:35:35.701Z,43.55
2023-05-25T14:38:02.357Z,44.67
2023-05-25T14:40:29.051Z,44.51
2023-05-25T14:42:55.850Z,43.69
2023-05-25T14:45:22.752Z,43.34
2023-05-25T14:47:50.696Z,42.48
2023-05-25T14:50:20.321Z,43.90
2023-05-25T14:52:47.052Z,42.53
2023-05-25T14:55:13.747Z,43.35
2023-05-25T14:57:40.772Z,43.05
2023-05-25T15:00:08.186Z,42.76
2023-05-25T15:02:34.990Z,42.12
2023-05-25T15:05:01.730Z,43.32
2023-05-25T15:07:28.386Z,42.50
2023-05-25T15:09:55.149Z,43.04
2023-05-25T15:12:21.933Z,41.73
2023-05-25T15:14:48.628Z,41.08
2023-05-25T15:17:15.368Z,42.30
2023-05-25T15:19:42.013Z,42.36
2023-05-25T15:22:08.835Z,42.26
2023-05-25T15:24:35.534Z,42.04
2023-05-25T15:27:05.102Z,41.52
2023-05-25T15:29:31.944Z,40.81
2023-05-25T15:31:58.764Z,41.97
2023-05-25T15:34:25.448Z,40.62
2023-05-25T15:36:52.292Z,41.51
2023-05-25T15:39:19.066Z,41.59
2023-05-25T15:41:45.711Z,41.36
2023-05-25T15:44:12.862Z,39.98
2023-05-25T15:46:42.396Z,41.39
2023-05-25T15:49:12.126Z,38.87
2023-05-25T15:51:43.829Z,41.13
2023-05-25T15:54:14.147Z,40.89
2023-05-25T15:56:41.456Z,41.50
2023-05-25T15:59:08.143Z,41.58
2023-05-25T16:01:36.831Z,40.17
2023-05-25T16:04:04.977Z,41.18
2023-05-25T16:06:32.248Z,41.28
2023-05-25T16:08:59.077Z,41.62
2023-05-25T16:11:28.101Z,41.03
2023-05-25T16:13:55.588Z,40.61
2023-05-25T16:16:24.203Z,42.17
2023-05-25T16:18:51.709Z,41.79
2023-05-25T16:21:18.509Z,41.08
2023-05-25T16:23:45.238Z,41.08
2023-05-25T16:26:11.906Z,41.74
2023-05-25T16:28:38.916Z,39.97
2023-05-25T16:31:06.355Z,41.77
2023-05-25T16:33:34.289Z,42.13
2023-05-25T16:36:01.583Z,42.08
2023-05-25T16:38:28.331Z,42.80
2023-05-25T16:40:55.096Z,42.98
2023-05-25T16:43:25.210Z,41.72
2023-05-25T16:45:52.078Z,42.09
2023-05-25T16:48:21.612Z,41.70
2023-05-25T16:50:49.786Z,41.27
2023-05-25T16:53:16.445Z,42.43
2023-05-25T16:55:43.388Z,42.16
2023-05-25T16:58:10.341Z,40.92
2023-05-25T17:00:37.017Z,42.85
2023-05-25T17:03:03.804Z,42.60
2023-05-25T17:05:30.674Z,41.90
2023-05-25T17:07:57.328Z,42.41
2023-05-25T17:10:23.985Z,42.42
2023-05-25T17:12:51.489Z,41.45
2023-05-25T17:15:18.665Z,42.18
2023-05-25T17:17:45.955Z,42.63
2023-05-25T17:20:12.945Z,42.18
2023-05-25T17:22:40.245Z,42.34
2023-05-25T17:25:09.086Z,42.88
2023-05-25T17:27:35.772Z,42.79
2023-05-25T17:30:02.533Z,43.23
2023-05-25T17:32:29.176Z,42.12
2023-05-25T17:34:55.893Z,42.71
2023-05-25T17:37:22.540Z,42.31
2023-05-25T17:39:49.219Z,43.49
2023-05-25T17:42:16.832Z,43.53
2023-05-25T17:44:43.516Z,42.38
2023-05-25T17:47:11.345Z,43.17
2023-05-25T17:49:38.308Z,42.96
2023-05-25T17:52:05.155Z,42.50
2023-05-25T17:54:31.856Z,42.09
2023-05-25T17:56:58.542Z,42.83
2023-05-25T17:59:28.156Z,42.41
2023-05-25T18:01:55.082Z,42.80
2023-05-25T18:04:21.785Z,41.98
2023-05-25T18:06:54.209Z,42.12
2023-05-25T18:09:21.186Z,42.13
2023-05-25T18:11:47.902Z,41.88
2023-05-25T18:14:14.566Z,42.06
2023-05-25T18:16:42.520Z,42.50
2023-05-25T18:19:09.575Z,42.38
2023-05-25T18:21:40.331Z,42.78
2023-05-25T18:24:08.445Z,42.90
2023-05-25T18:26:36.179Z,42.82
2023-05-25T18:29:03.076Z,42.83
2023-05-25T18:31:32.233Z,43.37
2023-05-25T18:34:00.175Z,43.58
2023-05-25T18:36:26.850Z,44.08
2023-05-25T18:38:53.475Z,44.12
2023-05-25T18:41:24.274Z,45.79
2023-05-25T18:43:50.940Z,45.58
2023-05-25T18:46:17.786Z,45.73
2023-05-25T18:48:44.621Z,45.91
2023-05-25T18:51:11.577Z,45.86
2023-05-25T18:53:38.534Z,45.37
2023-05-25T18:56:05.795Z,46.00
2023-05-25T18:58:32.491Z,45.40
2023-05-25T19:00:59.208Z,45.87
2023-05-25T19:03:26.645Z,45.73
2023-05-25T19:05:53.433Z,46.46
2023-05-25T19:08:20.068Z,46.45
2023-05-25T19:10:46.799Z,46.75
2023-05-25T19:13:13.507Z,46.58
2023-05-25T19:15:40.139Z,46.38
2023-05-25T19:18:06.943Z,46.48
2023-05-25T19:20:33.765Z,46.42
2023-05-25T19:23:00.717Z,46.98
2023-05-25T19:25:27.485Z,47.02
2023-05-25T19:27:54.233Z,46.89
2023-05-25T19:30:20.969Z,47.26
2023-05-25T19:32:47.672Z,47.16
2023-05-25T19:35:14.456Z,47.22
2023-05-25T19:37:41.399Z,47.10
2023-05-25T19:40:09.578Z,47.21
2023-05-25T19:42:36.440Z,47.07
2023-05-25T19:45:03.578Z,47.89
2023-05-25T19:47:30.798Z,48.69
2023-05-25T19:49:57.575Z,48.42
2023-05-25T19:52:24.355Z,48.40
2023-05-25T19:54:51.423Z,48.32
2023-05-25T19:57:18.215Z,48.55
2023-05-25T19:59:44.867Z,48.64
2023-05-25T20:02:11.860Z,48.70
2023-05-25T20:04:41.221Z,49.08
2023-05-25T20:07:08.009Z,49.75
2023-05-25T20:09:35.745Z,50.15
2023-05-25T20:12:02.614Z,49.53
2023-05-25T20:14:30.394Z,49.77
2023-05-25T20:16:57.114Z,50.01
2023-05-25T20:19:23.789Z,50.51
2023-05-25T20:21:50.852Z,50.56
2023-05-25T20:24:17.642Z,51.51
2023-05-25T20:26:44.475Z,51.75
2023-05-25T20:29:11.168Z,50.97
2023-05-25T20:31:37.861Z,51.43
2023-05-25T20:34:04.555Z,51.05
2023-05-25T20:36:33.006Z,51.45
2023-05-25T20:38:59.898Z,51.45
2023-05-25T20:41:26.610Z,51.10
2023-05-25T20:43:53.374Z,51.80
2023-05-25T20:46:20.111Z,52.03
2023-05-25T20:48:46.825Z,52.34
2023-05-25T20:51:14.347Z,52.11
2023-05-25T20:53:41.240Z,53.65
2023-05-25T20:56:07.877Z,52.63
2023-05-25T20:58:34.649Z,52.94
2023-05-25T21:01:01.413Z,52.62
2023-05-25T21:03:28.107Z,52.52
2023-05-25T21:05:54.849Z,53.36
2023-05-25T21:08:23.699Z,52.75
2023-05-25T21:10:50.368Z,53.04
2023-05-25T21:13:17.058Z,53.57
2023-05-25T21:15:43.858Z,53.05
2023-05-25T21:18:10.834Z,54.16
2023-05-25T21:20:38.517Z,53.67
2023-05-25T21:23:05.439Z,54.27
2023-05-25T21:25:32.203Z,53.62
2023-05-25T21:27:58.933Z,53.54
2023-05-25T21:30:25.732Z,54.28
2023-05-25T21:32:52.819Z,54.24
2023-05-25T21:35:19.697Z,53.76
2023-05-25T21:37:47.770Z,54.03
2023-05-25T21:40:14.621Z,53.56
2023-05-25T21:42:41.396Z,53.92
2023-05-25T21:45:08.701Z,53.83
2023-05-25T21:47:35.551Z,54.27
2023-05-25T21:50:02.495Z,53.78
2023-05-25T21:52:29.175Z,55.36
2023-05-25T21:54:55.853Z,56.57
2023-05-25T21:57:22.548Z,57.17
2023-05-25T21:59:49.304Z,57.87
2023-05-25T22:02:16.042Z,56.96
2023-05-25T22:04:42.742Z,55.95
2023-05-25T22:07:09.419Z,56.09
2023-05-25T22:09:36.063Z,56.21
2023-05-25T22:12:02.784Z,56.46
2023-05-25T22:14:29.423Z,56.01
2023-05-25T22:16:56.189Z,56.06
2023-05-25T22:19:22.859Z,55.79
2023-05-25T22:21:49.548Z,55.77
2023-05-25T22:24:16.318Z,55.16
2023-05-25T22:26:43.033Z,57.13
2023-05-25T22:29:11.866Z,56.41
2023-05-25T22:31:38.553Z,57.37
2023-05-25T22:34:05.423Z,56.87
2023-05-25T22:36:32.132Z,56.54
2023-05-25T22:38:58.879Z,57.11
2023-05-25T22:41:26.565Z,56.72
2023-05-25T22:43:53.269Z,56.86
2023-05-25T22:46:20.716Z,56.51
2023-05-25T22:48:47.477Z,56.98
2023-05-25T22:51:14.295Z,56.53
2023-05-25T22:53:40.946Z,57.39
2023-05-25T22:56:07.672Z,56.51
2023-05-25T22:58:34.371Z,57.94
2023-05-25T23:01:01.017Z,57.23
2023-05-25T23:03:27.884Z,57.75
2023-05-25T23:05:54.641Z,57.10
2023-05-25T23:08:21.305Z,56.75
2023-05-25T23:10:47.959Z,56.42
2023-05-25T23:13:14.989Z,56.84
2023-05-25T23:15:44.820Z,56.57
2023-05-25T23:18:11.776Z,57.07
2023-05-25T23:20:38.510Z,57.86
2023-05-25T23:23:05.149Z,57.66
2023-05-25T23:25:31.822Z,57.54
2023-05-25T23:27:58.467Z,56.86
2023-05-25T23:30:25.163Z,58.17
2023-05-25T23:32:51.909Z,57.52
2023-05-25T23:35:18.614Z,57.46
2023-05-25T23:37:45.569Z,57.31
2023-05-25T23:40:12.423Z,57.65
2023-05-25T23:42:40.286Z,57.42
2023-05-25T23:45:08.272Z,57.21
2023-05-25T23:47:35.070Z,57.23
2023-05-25T23:50:02.920Z,57.03
2023-05-25T23:52:30.971Z,56.40
2023-05-25T23:54:57.622Z,56.50
2023-05-25T23:57:24.278Z,56.66
2023-05-25T23:59:51.429Z,57.22
